Time;durP1;ratioP1;P1;durP2;ratioP2;P2;SDS_P1;SDS_P2;PMS_P1;PMS_P2;Temp;Humidity;BMP_temperature;BMP_pressure;BME280_temperature;BME280_humidity;BME280_pressure;Samples;Min_cycle;Max_cycle;Signal;HPM_P1;HPM_P2
2022/03/09 00:01:58;;;;;;;67.97;28.25;;;;;;;3.73;63.57;99828.70;1727355;81;21500;-43
2022/03/09 00:04:24;;;;;;;66.95;27.48;;;;;;;3.69;63.78;99833.55;1727363;81;21487;-42
2022/03/09 00:06:50;;;;;;;59.00;26.13;;;;;;;3.68;63.63;99837.91;1727647;81;20959;-44
2022/03/09 00:09:16;;;;;;;60.05;27.25;;;;;;;3.67;63.35;99837.48;1727350;83;21026;-47
2022/03/09 00:11:42;;;;;;;58.42;25.68;;;;;;;3.62;63.76;99832.80;1727598;81;20990;-44
2022/03/09 00:14:08;;;;;;;65.45;28.50;;;;;;;3.59;63.71;99833.73;1727295;81;20987;-44
2022/03/09 00:16:34;;;;;;;68.30;26.80;;;;;;;3.55;63.97;99833.37;1727281;81;20966;-42
2022/03/09 00:18:59;;;;;;;61.68;26.50;;;;;;;3.49;64.09;99832.61;1727287;81;21030;-43
2022/03/09 00:21:25;;;;;;;67.27;27.27;;;;;;;3.49;63.86;99828.72;1727347;81;20990;-45
2022/03/09 00:23:51;;;;;;;66.33;26.55;;;;;;;3.46;63.88;99834.39;1727339;81;21472;-43
2022/03/09 00:26:17;;;;;;;62.55;28.10;;;;;;;3.43;64.11;99822.73;1727347;81;20979;-44
2022/03/09 00:28:43;;;;;;;63.20;26.62;;;;;;;3.47;64.29;99823.53;1727355;81;21594;-46
2022/03/09 00:31:09;;;;;;;58.02;24.15;;;;;;;3.49;64.26;99822.21;1727314;81;20982;-48
2022/03/09 00:33:35;;;;;;;61.95;25.82;;;;;;;3.50;64.49;99817.44;1727396;81;21033;-43
2022/03/09 00:36:01;;;;;;;67.15;27.00;;;;;;;3.50;64.31;99816.14;1727234;81;21034;-48
2022/03/09 00:38:28;;;;;;;67.65;27.77;;;;;;;3.51;64.13;99810.03;1727568;83;21414;-45
2022/03/09 00:40:54;;;;;;;62.90;27.85;;;;;;;3.54;64.09;99808.69;1727448;81;20990;-46
2022/03/09 00:43:19;;;;;;;62.00;27.22;;;;;;;3.58;64.00;99796.89;1727355;81;21484;-44
2022/03/09 00:45:46;;;;;;;57.70;26.25;;;;;;;3.56;64.03;99790.86;1727321;81;20982;-44
2022/03/09 00:48:12;;;;;;;60.03;26.50;;;;;;;3.50;63.95;99781.89;1727412;81;21046;-47
2022/03/09 00:50:38;;;;;;;58.92;26.15;;;;;;;3.50;63.95;99781.89;1727272;81;21446;-46
2022/03/09 00:53:04;;;;;;;61.58;26.52;;;;;;;3.54;63.61;99774.89;1727248;81;21023;-49
2022/03/09 00:55:30;;;;;;;61.08;24.63;;;;;;;3.50;63.90;99773.23;1727322;81;21029;-46
2022/03/09 00:57:55;;;;;;;59.83;26.15;;;;;;;3.48;63.85;99772.41;1727354;81;20994;-45
2022/03/09 01:00:21;;;;;;;62.30;24.85;;;;;;;3.45;64.11;99771.55;1727346;81;20990;-46
2022/03/09 01:02:47;;;;;;;60.03;24.20;;;;;;;3.46;64.11;99768.53;1727265;81;21551;-47
2022/03/09 01:05:14;;;;;;;58.33;24.40;;;;;;;3.45;63.74;99770.26;1727270;81;21042;-43
2022/03/09 01:07:41;;;;;;;59.93;24.52;;;;;;;3.38;64.11;99767.36;1727515;83;21506;-44
2022/03/09 01:10:09;;;;;;;58.57;25.00;;;;;;;3.35;64.16;99763.98;1727542;81;21034;-44
2022/03/09 01:12:35;;;;;;;51.58;23.00;;;;;;;3.31;64.23;99768.38;1727375;81;21297;-45
2022/03/09 01:15:01;;;;;;;49.23;23.32;;;;;;;3.31;64.13;99766.20;1727210;81;21034;-47
2022/03/09 01:17:27;;;;;;;48.45;22.80;;;;;;;3.26;64.45;99761.95;1727291;81;20967;-44
2022/03/09 01:19:54;;;;;;;53.25;22.35;;;;;;;3.25;64.69;99760.22;1727312;82;21480;-44
2022/03/09 01:22:20;;;;;;;57.10;22.32;;;;;;;3.25;64.84;99762.82;1727580;83;21038;-46
2022/03/09 01:24:45;;;;;;;48.17;22.15;;;;;;;3.22;64.47;99761.59;1727288;81;20971;-43
2022/03/09 01:27:11;;;;;;;49.93;21.20;;;;;;;3.23;64.45;99761.14;1727272;81;21006;-45
2022/03/09 01:29:37;;;;;;;42.95;20.20;;;;;;;3.20;64.50;99758.59;1727280;81;20998;-44
2022/03/09 01:32:04;;;;;;;49.13;20.68;;;;;;;3.19;64.45;99755.59;1727328;83;21034;-47
2022/03/09 01:34:30;;;;;;;47.50;21.70;;;;;;;3.17;64.64;99756.07;1727213;81;21051;-44
2022/03/09 01:36:55;;;;;;;52.65;22.58;;;;;;;3.18;64.74;99761.21;1727291;82;20986;-44
2022/03/09 01:39:21;;;;;;;57.05;22.62;;;;;;;3.17;64.36;99750.88;1727366;81;21460;-45
2022/03/09 01:41:47;;;;;;;42.88;19.67;;;;;;;3.18;64.63;99756.47;1727578;81;20986;-44
2022/03/09 01:44:20;;;;;;;45.92;18.77;;;;;;;3.18;64.55;99759.06;1727405;81;20990;-46
2022/03/09 01:46:49;;;;;;;44.60;19.45;;;;;;;3.21;64.25;99755.13;1727165;82;20993;-47
2022/03/09 01:49:16;;;;;;;42.45;19.77;;;;;;;3.18;64.51;99749.97;1727172;81;21573;-43
2022/03/09 01:51:45;;;;;;;43.15;20.32;;;;;;;3.19;64.58;99755.14;1727602;81;20993;-44
2022/03/09 01:54:12;;;;;;;47.75;19.67;;;;;;;3.20;64.54;99754.69;1727361;81;21352;-45
2022/03/09 01:56:39;;;;;;;46.58;19.50;;;;;;;3.20;64.53;99755.99;1727503;83;20970;-44
2022/03/09 01:59:06;;;;;;;43.13;19.53;;;;;;;3.22;64.68;99763.31;1727756;81;20993;-44
2022/03/09 02:01:32;;;;;;;;;;;;;;;3.24;64.55;99759.83;1730011;83;21002;-47
2022/03/09 02:03:59;;;;;;;48.28;20.68;;;;;;;3.23;65.18;99755.95;1727621;83;20494;-44
2022/03/09 02:06:25;;;;;;;50.70;20.85;;;;;;;3.26;64.74;99749.41;1705019;83;20999;-44
2022/03/09 02:11:37;;;;;;;43.13;19.98;;;;;;;3.29;64.69;99750.63;1727367;83;20978;-46
2022/03/09 02:14:04;;;;;;;46.25;19.37;;;;;;;3.29;65.06;99749.33;1727617;81;21460;-45
2022/03/09 02:16:30;;;;;;;45.12;20.12;;;;;;;3.31;64.78;99749.30;1727327;81;21097;-44
2022/03/09 02:18:56;;;;;;;47.38;19.60;;;;;;;3.33;64.72;99749.70;1727387;81;20975;-46
2022/03/09 02:21:26;;;;;;;51.83;20.85;;;;;;;3.30;64.85;99745.86;1727402;81;20982;-44
2022/03/09 02:23:54;;;;;;;44.42;18.73;;;;;;;3.22;64.82;99747.72;1727342;83;21038;-44
2022/03/09 02:26:20;;;;;;;39.20;17.05;;;;;;;3.18;65.04;99744.77;1727448;81;21044;-43
2022/03/09 02:28:47;;;;;;;39.35;18.73;;;;;;;3.11;65.07;99738.84;1727445;81;21509;-45
2022/03/09 02:31:13;;;;;;;46.37;19.02;;;;;;;3.05;64.99;99744.13;1727537;81;20999;-44
2022/03/09 02:33:45;;;;;;;50.55;20.60;;;;;;;2.97;65.48;99739.08;1727346;81;20963;-43
2022/03/09 02:36:11;;;;;;;40.45;18.30;;;;;;;2.92;65.32;99740.89;1726406;83;21527;-48
2022/03/09 02:38:37;;;;;;;41.70;19.12;;;;;;;2.85;65.80;99741.87;1727357;81;20994;-44
2022/03/09 02:41:03;;;;;;;42.27;17.48;;;;;;;2.78;65.86;99738.50;1732530;79;21225;-49
2022/03/09 02:43:28;;;;;;;33.73;16.55;;;;;;;2.76;65.93;99741.58;1754923;82;21000;-44
2022/03/09 02:45:54;;;;;;;42.80;17.10;;;;;;;2.71;66.31;99747.31;1755134;80;21075;-47
2022/03/09 02:48:20;;;;;;;36.05;16.82;;;;;;;2.73;65.95;99751.16;1756154;80;21469;-45
2022/03/09 02:50:45;;;;;;;41.28;18.15;;;;;;;2.74;65.96;99752.88;1756185;82;21601;-44
2022/03/09 02:53:11;;;;;;;36.45;17.70;;;;;;;2.73;65.85;99745.54;1756256;82;20985;-45
2022/03/09 02:55:39;;;;;;;40.30;19.35;;;;;;;2.72;65.69;99742.97;1756063;80;20950;-48
2022/03/09 02:58:04;;;;;;;;;;;;;;;2.69;66.19;99745.15;1758694;82;21573;-47
2022/03/09 03:00:30;;;;;;;42.67;18.40;;;;;;;2.67;66.44;99743.02;1756133;82;20110;-43
2022/03/09 03:02:56;;;;;;;46.20;19.20;;;;;;;2.68;66.19;99748.65;1756081;82;21533;-44
2022/03/09 03:05:22;;;;;;;47.90;20.85;;;;;;;2.66;66.25;99738.28;1756163;80;20992;-45
2022/03/09 03:07:47;;;;;;;41.65;19.77;;;;;;;2.68;66.15;99739.55;1756045;82;21528;-45
2022/03/09 03:10:13;;;;;;;40.48;19.48;;;;;;;2.68;66.34;99739.11;1756078;80;20972;-45
2022/03/09 03:12:39;;;;;;;44.48;18.73;;;;;;;2.69;66.27;99737.36;1756016;82;20996;-46
2022/03/09 03:15:06;;;;;;;46.77;18.40;;;;;;;2.68;66.29;99739.11;1755959;82;21007;-45
2022/03/09 03:17:37;;;;;;;46.30;19.70;;;;;;;2.64;66.64;99742.64;1756302;80;20965;-45
2022/03/09 03:20:05;;;;;;;43.05;18.55;;;;;;;2.62;66.56;99746.12;1756022;82;21000;-45
2022/03/09 03:22:32;;;;;;;43.08;18.98;;;;;;;2.61;66.38;99743.98;1755998;82;21004;-44
2022/03/09 03:24:57;;;;;;;40.65;18.77;;;;;;;2.55;66.58;99748.40;1756068;81;20961;-48
2022/03/09 03:27:23;;;;;;;41.18;18.95;;;;;;;2.52;66.63;99749.77;1756058;80;21040;-46
2022/03/09 03:29:49;;;;;;;44.93;19.45;;;;;;;2.44;67.39;99750.73;1756144;81;21481;-44
2022/03/09 03:32:15;;;;;;;47.13;20.43;;;;;;;2.46;67.22;99758.50;1756090;82;21418;-43
2022/03/09 03:34:40;;;;;;;40.65;19.02;;;;;;;2.42;67.07;99757.69;1755975;82;20985;-42
2022/03/09 03:37:07;;;;;;;41.68;19.95;;;;;;;2.39;67.40;99749.09;1756013;82;20973;-42
2022/03/09 03:39:32;;;;;;;38.08;18.67;;;;;;;2.38;67.18;99756.00;1756061;81;21032;-43
2022/03/09 03:41:58;;;;;;;39.75;19.20;;;;;;;2.32;67.46;99759.14;1756705;81;20993;-42
2022/03/09 03:44:24;;;;;;;41.05;19.07;;;;;;;2.28;67.74;99753.98;1758523;81;21517;-43
2022/03/09 03:46:50;;;;;;;36.85;17.35;;;;;;;2.28;68.03;99746.65;1758467;81;20965;-42
2022/03/09 03:49:15;;;;;;;40.10;18.42;;;;;;;2.25;68.14;99750.13;1758521;81;20968;-44
2022/03/09 03:51:41;;;;;;;49.45;18.42;;;;;;;2.25;67.95;99745.38;1758478;81;21028;-42
2022/03/09 03:54:07;;;;;;;40.38;18.75;;;;;;;2.21;68.59;99745.87;1758443;81;20992;-46
2022/03/09 03:56:33;;;;;;;35.83;16.50;;;;;;;2.21;68.57;99745.87;1758316;81;20988;-43
2022/03/09 03:58:59;;;;;;;41.13;19.45;;;;;;;2.21;68.58;99745.87;1758463;81;21036;-42
2022/03/09 04:01:25;;;;;;;47.17;20.37;;;;;;;2.17;68.80;99745.50;1758426;81;20992;-43
2022/03/09 04:03:51;;;;;;;40.60;18.60;;;;;;;2.18;68.76;99741.16;1758630;81;21047;-43
2022/03/09 04:06:18;;;;;;;39.53;18.82;;;;;;;2.17;68.61;99740.30;1758381;81;21457;-44
2022/03/09 04:08:43;;;;;;;46.85;20.37;;;;;;;2.14;68.80;99744.23;1758421;81;20965;-43
2022/03/09 04:11:09;;;;;;;42.20;19.40;;;;;;;2.08;69.63;99742.58;1758363;81;21051;-44
2022/03/09 04:13:35;;;;;;;44.30;20.15;;;;;;;2.09;69.50;99747.32;1758511;81;21024;-42
2022/03/09 04:16:01;;;;;;;43.50;21.00;;;;;;;2.03;69.81;99744.38;1758511;81;20988;-42
2022/03/09 04:18:27;;;;;;;42.93;20.12;;;;;;;2.00;70.22;99737.95;1758680;81;21044;-43
2022/03/09 04:20:53;;;;;;;50.20;21.12;;;;;;;2.01;69.88;99737.05;1758397;81;21035;-44
2022/03/09 04:23:18;;;;;;;51.45;24.67;;;;;;;2.02;70.02;99740.50;1758516;81;21050;-44
2022/03/09 04:25:45;;;;;;;50.78;22.82;;;;;;;2.04;70.11;99734.87;1758396;81;21497;-42
2022/03/09 04:28:10;;;;;;;53.20;23.00;;;;;;;2.07;69.91;99730.92;1758416;81;21004;-44
2022/03/09 04:30:36;;;;;;;51.42;24.43;;;;;;;2.10;69.80;99733.48;1758474;81;21469;-43
2022/03/09 04:33:02;;;;;;;51.35;23.60;;;;;;;2.07;70.27;99734.81;1758476;81;20996;-46
2022/03/09 04:35:28;;;;;;;52.10;23.57;;;;;;;2.09;70.50;99734.35;1758420;80;20985;-43
2022/03/09 04:37:53;;;;;;;55.00;24.55;;;;;;;2.07;70.28;99738.70;1758401;81;21000;-44
2022/03/09 04:40:19;;;;;;;47.98;23.30;;;;;;;2.09;70.72;99738.24;1758365;81;21008;-43
2022/03/09 04:42:45;;;;;;;43.78;21.17;;;;;;;2.07;70.70;99733.10;1758386;81;21088;-43
2022/03/09 04:45:11;;;;;;;45.85;20.65;;;;;;;2.07;70.42;99730.92;1758532;81;21469;-44
2022/03/09 04:47:37;;;;;;;47.78;22.50;;;;;;;2.06;70.03;99731.82;1758421;81;21588;-47
2022/03/09 04:50:03;;;;;;;47.45;21.95;;;;;;;2.04;70.91;99733.58;1758479;81;20989;-43
2022/03/09 04:52:29;;;;;;;46.05;22.80;;;;;;;2.05;69.87;99733.98;1758425;81;21300;-44
2022/03/09 04:54:54;;;;;;;53.15;23.98;;;;;;;1.97;70.87;99730.65;1758364;81;21390;-44
2022/03/09 04:57:20;;;;;;;51.80;21.93;;;;;;;1.88;71.70;99731.17;1758430;81;21043;-42
2022/03/09 04:59:46;;;;;;;51.92;24.30;;;;;;;1.95;70.48;99720.70;1758450;81;21035;-46
2022/03/09 05:02:12;;;;;;;51.05;22.67;;;;;;;1.88;71.45;99729.03;1758428;81;21469;-43
2022/03/09 05:04:38;;;;;;;53.13;21.73;;;;;;;1.90;70.88;99722.92;1758445;81;20992;-43
2022/03/09 05:07:04;;;;;;;52.73;21.93;;;;;;;1.89;71.45;99729.42;1758467;81;21465;-43
2022/03/09 05:09:30;;;;;;;52.60;22.37;;;;;;;1.89;71.60;99725.53;1758327;81;21031;-49
2022/03/09 05:11:55;;;;;;;50.92;22.02;;;;;;;1.89;71.54;99729.02;1758384;81;20992;-43
2022/03/09 05:14:21;;;;;;;42.17;20.80;;;;;;;1.87;71.99;99730.77;1758381;81;20992;-43
2022/03/09 05:16:47;;;;;;;54.88;22.32;;;;;;;1.92;71.74;99733.29;1758522;81;20996;-44
2022/03/09 05:19:13;;;;;;;51.92;22.55;;;;;;;1.85;71.81;99732.95;1758593;81;21524;-43
2022/03/09 05:21:39;;;;;;;48.02;21.15;;;;;;;1.88;72.00;99738.95;1758527;81;20973;-45
2022/03/09 05:24:05;;;;;;;43.95;21.68;;;;;;;1.90;71.88;99733.30;1758512;81;21036;-43
2022/03/09 05:26:32;;;;;;;48.48;21.05;;;;;;;1.94;71.09;99739.76;1758550;81;20996;-45
2022/03/09 05:28:57;;;;;;;46.77;21.12;;;;;;;1.92;71.36;99741.92;1758611;81;21508;-43
2022/03/09 05:31:24;;;;;;;48.90;21.07;;;;;;;1.95;71.21;99742.34;1758519;81;21493;-43
2022/03/09 05:33:51;;;;;;;53.42;20.88;;;;;;;1.95;71.13;99746.23;1758659;81;20988;-45
2022/03/09 05:36:17;;;;;;;50.98;21.25;;;;;;;1.90;71.69;99735.89;1758453;81;20968;-45
2022/03/09 05:38:42;;;;;;;45.48;19.77;;;;;;;1.95;71.68;99750.53;1758580;81;21004;-43
2022/03/09 05:41:08;;;;;;;50.28;20.82;;;;;;;1.92;71.36;99754.88;1758645;81;21449;-46
2022/03/09 05:43:35;;;;;;;45.58;20.90;;;;;;;1.97;70.69;99766.52;1756693;81;21485;-45
2022/03/09 05:46:01;;;;;;;55.52;22.40;;;;;;;1.84;71.43;99770.15;1756185;82;20999;-44
2022/03/09 05:48:26;;;;;;;46.45;19.48;;;;;;;1.78;71.50;99767.16;1756174;82;21497;-42
2022/03/09 05:50:52;;;;;;;50.78;21.07;;;;;;;1.80;71.17;99767.15;1756060;82;20964;-43
2022/03/09 05:53:18;;;;;;;46.48;21.25;;;;;;;1.76;71.14;99771.52;1756229;82;20983;-43
2022/03/09 05:55:44;;;;;;;46.28;21.40;;;;;;;1.76;71.12;99766.33;1756026;82;21023;-43
2022/03/09 05:58:09;;;;;;;42.48;21.00;;;;;;;1.81;70.81;99772.32;1756143;80;21004;-42
2022/03/09 06:00:35;;;;;;;45.78;21.35;;;;;;;1.72;71.14;99769.84;1756070;82;21008;-42
2022/03/09 06:03:01;;;;;;;51.88;21.17;;;;;;;1.67;71.17;99776.80;1756179;80;20969;-43
2022/03/09 06:05:27;;;;;;;52.85;20.82;;;;;;;1.69;70.48;99778.94;1756131;80;21532;-41
2022/03/09 06:07:52;;;;;;;46.18;20.45;;;;;;;1.64;70.65;99782.05;1756016;82;21069;-42
2022/03/09 06:10:18;;;;;;;57.05;21.62;;;;;;;1.68;70.11;99785.87;1756093;81;20976;-43
2022/03/09 06:12:44;;;;;;;41.70;20.88;;;;;;;1.54;70.72;99786.45;1756074;82;21031;-42
2022/03/09 06:15:10;;;;;;;51.63;21.40;;;;;;;1.50;70.87;99795.14;1756009;82;20988;-42
2022/03/09 06:17:49;;;;;;;48.08;20.77;;;;;;;1.60;70.60;99789.41;1756071;82;20988;-44
2022/03/09 06:20:18;;;;;;;51.85;22.30;;;;;;;1.59;70.73;99791.16;1755922;82;21000;-47
2022/03/09 06:22:45;;;;;;;61.58;23.67;;;;;;;1.68;70.52;99800.12;1756247;80;21547;-43
2022/03/09 06:25:14;;;;;;;53.40;24.18;;;;;;;1.76;69.84;99800.03;1756293;82;20996;-42
2022/03/09 06:27:43;;;;;;;45.00;20.68;;;;;;;1.73;69.76;99806.58;1755866;81;21016;-42
2022/03/09 06:30:11;;;;;;;43.33;20.00;;;;;;;1.70;70.13;99806.59;1755903;81;20988;-43
2022/03/09 06:32:37;;;;;;;43.92;20.50;;;;;;;1.77;69.60;99806.95;1756050;82;21004;-44
2022/03/09 06:35:05;;;;;;;47.03;21.93;;;;;;;1.76;69.44;99801.78;1756401;81;20965;-44
2022/03/09 06:37:33;;;;;;;36.93;18.45;;;;;;;1.70;69.69;99806.15;1756122;80;21032;-43
2022/03/09 06:40:00;;;;;;;34.35;16.90;;;;;;;1.78;69.57;99812.54;1756190;80;20997;-45
2022/03/09 06:42:27;;;;;;;52.67;18.23;;;;;;;1.63;69.70;99818.75;1756569;81;21024;-44
2022/03/09 06:44:53;;;;;;;39.93;18.47;;;;;;;1.61;69.80;99813.17;1758930;81;21492;-45
2022/03/09 06:47:20;;;;;;;36.48;18.30;;;;;;;1.64;69.65;99823.08;1758576;81;21397;-44
2022/03/09 06:49:46;;;;;;;36.87;17.97;;;;;;;1.74;69.28;99822.53;1758716;81;20976;-43
2022/03/09 06:52:11;;;;;;;35.80;16.75;;;;;;;1.69;69.42;99816.12;1758450;81;21004;-44
2022/03/09 06:54:37;;;;;;;33.45;15.65;;;;;;;1.70;69.41;99815.67;1758553;81;21600;-44
2022/03/09 06:57:03;;;;;;;38.10;17.05;;;;;;;1.82;68.92;99818.55;1758687;81;21544;-44
2022/03/09 06:59:29;;;;;;;38.67;17.75;;;;;;;1.74;69.16;99813.45;1758421;81;20993;-44
2022/03/09 07:01:56;;;;;;;39.35;17.85;;;;;;;1.81;69.47;99812.52;1758440;80;21484;-44
2022/03/09 07:04:22;;;;;;;33.80;16.23;;;;;;;1.98;69.32;99817.95;1758436;81;21051;-44
2022/03/09 07:06:47;;;;;;;39.95;19.00;;;;;;;2.01;68.70;99814.03;1758527;81;21541;-46
2022/03/09 07:09:14;;;;;;;36.95;16.77;;;;;;;2.05;68.40;99818.30;1758535;81;21485;-43
2022/03/09 07:11:41;;;;;;;34.67;16.20;;;;;;;2.01;68.26;99823.95;1758755;81;21039;-44
